• Join FlightAware (Why Join?)
  • Login
  • US Flag 
10:40PM EDT


 

Airport Tracker/Info


-or-


 

Live Flight TrackerFlight Track Log ✈ N26572 ✈ 15-Jun-2013 ✈ KLZU - KMDQ

Flight Track Log - Related Links

Times and Time Zones

All times are in EDT time to prevent confusion due to time zone crossing. See the N26572 flight status page for this flight to view local times or setup timezone preferences in your user account.

Time Position Orientation Groundspeed Altitude Reporting Facility
EDT Latitude Longitude Course Direction KTS MPH feet Rate Location/Type
06:41PM 34.0167 -83.9833 294° West 102 117 2,900  Level Atlanta TRACON
06:42PM 34.0333 -84.0167 301° West 105 121 3,600 660 Climbing Atlanta TRACON
06:43PM 34.0500 -84.0333 320° Northwest 101 116 4,300 660 Climbing Atlanta TRACON
06:44PM 34.0667 -84.0667 301° West 103 119 5,000 540 Climbing Atlanta TRACON
06:45PM 34.0833 -84.1000 301° West 114 131 5,500 480 Climbing Atlanta TRACON
06:46PM 34.0653 -84.2129 294° West  Level FlightAware Approximate
06:46PM 34.1000 -84.1333 301° West 111 128 6,000  Level Atlanta TRACON
06:47PM 34.1333 -84.1500 338° Northwest 125 144 6,100  Climbing Atlanta TRACON
06:48PM 34.1500 -84.2000 292° West 151 174 6,100  Level Atlanta TRACON
06:49PM 34.1667 -84.2333 301° West 152 175 6,100  Level Atlanta TRACON
06:50PM 34.2000 -84.2833 309° West 150 173 6,100  Level Atlanta TRACON
06:51PM 34.2281 -84.3303 306° West 171 197 6,100 180 Level Atlanta Center
06:52PM 34.2489 -84.3681 304° West 155 178 6,600 480 Climbing Atlanta Center
06:53PM 34.2653 -84.4033 299° West 134 154 7,100 540 Climbing Atlanta Center
06:54PM 34.2736 -84.4358 287° West 113 130 7,700 540 Climbing Atlanta Center
06:55PM 34.2819 -84.4661 288° West 102 117 8,200 180 Climbing Atlanta Center
06:56PM 34.2922 -84.5039 288° West 113 130 8,100 -60 Descending Atlanta Center
06:57PM 34.3108 -84.5494 296° West 130 150 8,100  Level Atlanta Center
06:58PM 34.3231 -84.5922 289° West 135 155 8,100  Level Atlanta Center
06:59PM 34.3375 -84.6400 290° West 145 167 8,100  Level Atlanta Center
07:00PM 34.3497 -84.6853 288° West 150 173 8,100  Level Atlanta Center
07:01PM 34.3622 -84.7333 288° West 150 173 8,100  Level Atlanta Center
07:02PM 34.3744 -84.7736 290° West 150 173 8,100  Level Atlanta Center
07:03PM 34.3886 -84.8217 290° West 150 173 8,100 -60 Level Atlanta Center
07:04PM 34.4008 -84.8669 288° West 145 167 8,000 -60 Descending Atlanta Center
07:05PM 34.4153 -84.9125 291° West 145 167 8,000  Level Atlanta Center
07:06PM 34.4400 -84.9531 306° West 145 167 8,000  Level Atlanta Center
07:07PM 34.4731 -84.9836 323° Northwest 151 174 8,000  Level Atlanta Center
07:08PM 34.5083 -85.0119 327° Northwest 146 168 8,000  Level Atlanta Center
07:09PM 34.5225 -85.0572 291° West 140 161 8,100  Climbing Atlanta Center
07:10PM 34.5203 -85.1053 267° West 136 157 8,000 -120 Descending Atlanta Center
07:11PM 34.5217 -85.1531 272° West 147 169 7,900 -60 Descending Atlanta Center
07:12PM 34.5233 -85.2036 272° West 147 169 7,900  Level Atlanta Center
07:13PM 34.5292 -85.2517 278° West 147 169 7,900  Level Atlanta Center
07:14PM 34.5328 -85.2994 275° West 147 169 7,900  Level Atlanta Center
07:15PM 34.5450 -85.3425 289° West 142 163 7,900  Level Atlanta Center
07:16PM 34.5486 -85.3881 276° West 142 163 8,000  Climbing Atlanta Center
07:17PM 34.5606 -85.4386 286° West 142 163 7,900 -60 Descending Atlanta Center
07:18PM 34.5747 -85.4842 291° West 142 163 7,900  Level Atlanta Center
07:19PM 34.5867 -85.5300 288° West 149 171 7,900  Level Atlanta Center
07:20PM 34.6008 -85.5781 290° West 149 171 7,900  Level Atlanta Center
07:21PM 34.6128 -85.6239 288° West 149 171 7,900  Level Atlanta Center
07:22PM 34.6267 -85.6719 289° West 149 171 7,900  Level Atlanta Center
07:23PM 34.6406 -85.7203 289° West 149 171 7,900  Level Atlanta Center
07:24PM 34.6525 -85.7683 287° West 149 171 7,900  Level Atlanta Center
07:25PM 34.6683 -85.8244 289° West 149 171 8,000  Climbing Atlanta Center
07:26PM 34.6822 -85.8700 290° West 149 171 7,900 -120 Descending Atlanta Center
07:28PM 34.7069 -85.9511 290° West  Level FlightAware Approximate
07:35PM 34.7833 -86.2612 270° West  Level FlightAware Approximate
07:36PM 34.7944 -86.3053 289° West  Level FlightAware Approximate
07:37PM 34.8069 -86.3491 289° West  Level FlightAware Approximate
07:38PM 34.8195 -86.3929 289° West  Level FlightAware Approximate
07:39PM 34.8320 -86.4367 289° West  Level FlightAware Approximate
07:40PM 34.8444 -86.4805 289° West  Level FlightAware Approximate
07:41PM 34.8500 -86.5257 270° West  Level FlightAware Approximate
07:42PM 34.8500 -86.5500 270° West  Level FlightAware Approximate